Time;durP1;ratioP1;P1;durP2;ratioP2;P2;SDS_P1;SDS_P2;PMS_P1;PMS_P2;Temp;Humidity;BMP_temperature;BMP_pressure;BME280_temperature;BME280_humidity;BME280_pressure;Samples;Min_cycle;Max_cycle;Signal;HPM_P1;HPM_P2
2023/03/23 00:01:26;;;;;;;2.47;1.00;;;12.80;95.50;;;;;;5016283;28;20248;-81
2023/03/23 00:03:56;;;;;;;1.23;1.10;;;12.70;95.30;;;;;;5034958;28;20159;-80
2023/03/23 00:06:24;;;;;;;1.50;1.17;;;12.70;95.40;;;;;;5017385;28;20265;-82
2023/03/23 00:08:56;;;;;;;1.57;1.00;;;12.70;95.10;;;;;;5034708;28;20256;-81
2023/03/23 00:11:26;;;;;;;1.10;0.90;;;12.80;94.40;;;;;;5016208;28;20194;-81
2023/03/23 00:13:52;;;;;;;2.03;1.00;;;12.80;94.40;;;;;;5030860;28;20209;-81
2023/03/23 00:16:20;;;;;;;3.43;1.60;;;12.80;94.70;;;;;;5016514;28;20183;-79
2023/03/23 00:18:47;;;;;;;1.87;1.40;;;12.80;95.10;;;;;;5016720;28;20252;-81
2023/03/23 00:21:13;;;;;;;2.23;1.10;;;12.80;94.70;;;;;;5016169;28;20198;-80
2023/03/23 00:23:39;;;;;;;1.80;1.10;;;12.80;95.30;;;;;;5016722;28;20170;-81
2023/03/23 00:26:05;;;;;;;1.40;1.00;;;12.70;96.20;;;;;;5016807;28;20703;-81
2023/03/23 00:28:31;;;;;;;1.17;1.00;;;12.60;96.40;;;;;;5017356;28;20545;-81
2023/03/23 00:31:03;;;;;;;2.57;1.23;;;12.60;96.20;;;;;;5015879;28;20764;-81
2023/03/23 00:33:37;;;;;;;1.57;0.90;;;12.60;96.20;;;;;;5034574;28;20179;-81
2023/03/23 00:36:04;;;;;;;2.07;0.90;;;12.70;95.20;;;;;;5016307;28;20181;-80
2023/03/23 00:38:31;;;;;;;1.17;1.00;;;12.70;95.00;;;;;;5016943;28;20281;-81
2023/03/23 00:40:57;;;;;;;1.83;1.10;;;12.70;94.80;;;;;;5016392;28;20202;-81
2023/03/23 00:43:28;;;;;;;1.73;1.10;;;12.80;94.10;;;;;;5016399;28;20268;-80
2023/03/23 00:45:55;;;;;;;1.57;1.30;;;12.80;93.70;;;;;;5034178;28;20171;-81
2023/03/23 00:48:22;;;;;;;1.30;1.20;;;12.90;93.70;;;;;;5034521;28;20257;-80
2023/03/23 00:50:49;;;;;;;2.20;1.10;;;12.90;94.70;;;;;;5016005;28;20198;-80
2023/03/23 00:53:16;;;;;;;1.07;0.90;;;12.70;95.60;;;;;;5016438;28;20182;-81
2023/03/23 00:55:46;;;;;;;1.57;1.07;;;12.70;95.30;;;;;;5016417;28;20171;-81
2023/03/23 00:58:13;;;;;;;1.93;1.10;;;12.70;94.70;;;;;;5016589;28;20565;-80
2023/03/23 01:00:39;;;;;;;3.07;1.10;;;12.80;95.40;;;;;;5015986;28;20194;-81
2023/03/23 01:03:06;;;;;;;1.30;1.00;;;12.80;95.50;;;;;;5034895;28;20205;-81
2023/03/23 01:05:36;;;;;;;1.23;0.90;;;12.80;96.50;;;;;;5036074;28;20183;-81
2023/03/23 01:08:02;;;;;;;1.60;1.10;;;12.70;96.80;;;;;;5020771;28;20186;-79
2023/03/23 01:10:28;;;;;;;1.80;1.10;;;12.70;98.60;;;;;;5037909;28;20194;-81
2023/03/23 01:12:54;;;;;;;1.50;1.40;;;12.60;99.50;;;;;;5039304;28;20177;-81
2023/03/23 01:15:21;;;;;;;3.47;1.37;;;12.50;99.90;;;;;;5020947;28;20519;-81
2023/03/23 01:17:47;;;;;;;1.47;1.10;;;12.50;99.90;;;;;;5038732;28;20174;-80
2023/03/23 01:20:14;;;;;;;2.10;1.07;;;12.50;99.90;;;;;;5032082;28;20211;-81
2023/03/23 01:22:41;;;;;;;1.10;1.00;;;12.50;99.90;;;;;;5038439;28;20170;-81
2023/03/23 01:25:08;;;;;;;2.27;1.20;;;12.50;99.90;;;;;;5020627;28;20247;-80
2023/03/23 01:27:33;;;;;;;1.50;1.00;;;12.50;99.90;;;;;;5020318;28;20167;-82
2023/03/23 01:29:59;;;;;;;1.63;1.20;;;12.40;99.90;;;;;;5020279;28;20177;-82
2023/03/23 01:32:25;;;;;;;2.20;1.20;;;12.40;99.90;;;;;;5020992;28;20208;-81
2023/03/23 01:34:51;;;;;;;1.40;1.10;;;12.40;99.90;;;;;;5038712;28;20181;-81
2023/03/23 01:37:16;;;;;;;1.20;1.00;;;12.40;99.90;;;;;;5039463;28;20196;-81
2023/03/23 01:39:42;;;;;;;2.40;1.13;;;12.30;99.90;;;;;;5038664;28;20241;-82
2023/03/23 01:42:11;;;;;;;1.83;1.00;;;12.40;99.90;;;;;;5020343;28;20210;-81
2023/03/23 01:44:36;;;;;;;1.80;1.10;;;12.40;99.90;;;;;;5020534;28;20201;-80
2023/03/23 01:47:03;;;;;;;1.30;1.20;;;12.50;99.90;;;;;;5021348;28;20174;-82
2023/03/23 01:49:36;;;;;;;1.80;0.93;;;12.50;99.90;;;;;;5020991;28;20179;-81
2023/03/23 01:52:04;;;;;;;2.37;1.20;;;12.50;99.90;;;;;;5038941;28;20194;-80
2023/03/23 01:54:30;;;;;;;1.13;0.93;;;12.50;99.90;;;;;;5039447;28;20261;-81
2023/03/23 01:57:00;;;;;;;1.70;1.13;;;12.50;99.90;;;;;;5039600;28;20197;-81
2023/03/23 01:59:27;;;;;;;1.80;1.30;;;12.50;99.90;;;;;;5039320;28;20198;-80
2023/03/23 02:01:54;;;;;;;1.20;1.10;;;12.50;99.90;;;;;;5039352;28;20201;-81
2023/03/23 02:04:22;;;;;;;2.03;1.00;;;12.50;99.90;;;;;;5022040;28;20176;-81
2023/03/23 02:06:48;;;;;;;1.63;1.10;;;12.50;99.90;;;;;;5021570;28;20177;-81
2023/03/23 02:09:17;;;;;;;1.23;1.10;;;12.50;99.90;;;;;;5022330;28;20174;-82
2023/03/23 02:11:43;;;;;;;1.60;1.00;;;12.50;99.90;;;;;;5021045;28;20194;-80
2023/03/23 02:14:09;;;;;;;1.80;1.00;;;12.60;99.90;;;;;;5023118;28;20189;-81
2023/03/23 02:16:47;;;;;;;1.10;1.00;;;12.50;99.90;;;;;;5022073;28;20174;-81
2023/03/23 02:19:24;;;;;;;1.00;1.00;;;12.50;99.90;;;;;;5021638;28;20277;-81
2023/03/23 02:22:08;;;;;;;1.37;1.00;;;12.50;99.90;;;;;;5040296;28;20225;-82
2023/03/23 02:24:50;;;;;;;2.80;1.40;;;12.40;99.90;;;;;;5022454;28;20167;-81
2023/03/23 02:27:39;;;;;;;2.27;1.30;;;12.40;99.90;;;;;;5023541;28;20170;-81
2023/03/23 02:30:13;;;;;;;2.83;1.10;;;12.50;99.90;;;;;;5022692;28;20179;-80
2023/03/23 02:32:58;;;;;;;1.57;1.00;;;12.50;99.90;;;;;;5041527;28;20544;-81
2023/03/23 02:35:34;;;;;;;1.73;1.10;;;12.50;99.90;;;;;;5039618;28;20183;-81
2023/03/23 02:38:26;;;;;;;1.63;1.10;;;12.50;99.90;;;;;;5023966;28;20174;-81
2023/03/23 02:40:54;;;;;;;1.90;1.10;;;12.50;99.90;;;;;;5040341;22;20239;-83
2023/03/23 02:43:27;;;;;;;1.47;1.00;;;12.50;99.90;;;;;;5076613;28;20197;-85
2023/03/23 02:45:54;;;;;;;1.43;1.10;;;12.50;99.90;;;;;;5078005;28;20177;-87
2023/03/23 02:48:24;;;;;;;1.83;1.13;;;12.50;99.90;;;;;;5077755;28;20631;-86
2023/03/23 02:50:52;;;;;;;1.63;1.00;;;12.50;99.90;;;;;;5078090;28;20194;-85
2023/03/23 02:53:22;;;;;;;1.17;0.90;;;12.60;99.90;;;;;;5078831;28;20169;-86
2023/03/23 02:55:52;;;;;;;1.57;1.27;;;12.60;99.90;;;;;;5078519;28;20255;-86
2023/03/23 02:58:18;;;;;;;1.47;1.00;;;12.60;99.20;;;;;;5077264;28;20287;-86
2023/03/23 03:00:49;;;;;;;1.53;0.93;;;12.60;98.70;;;;;;5078143;28;20256;-86
2023/03/23 03:03:18;;;;;;;1.33;1.00;;;12.60;99.20;;;;;;5064164;28;20185;-85
2023/03/23 03:05:44;;;;;;;1.20;1.10;;;12.60;99.10;;;;;;5079502;28;20200;-85
2023/03/23 03:08:44;;;;;;;1.10;1.00;;;12.70;99.30;;;;;;5078380;28;20192;-86
2023/03/23 03:11:13;;;;;;;1.40;1.07;;;12.70;99.60;;;;;;5078347;28;20204;-86
2023/03/23 03:13:56;;;;;;;2.93;1.90;;;12.70;99.90;;;;;;5079354;28;20196;-85
2023/03/23 03:17:06;;;;;;;2.37;1.60;;;12.60;99.90;;;;;;5078626;28;20651;-85
2023/03/23 03:19:40;;;;;;;1.10;1.00;;;12.60;99.90;;;;;;4961566;28;20204;-85
2023/03/23 03:22:07;;;;;;;1.20;1.10;;;12.60;99.90;;;;;;5059219;28;20200;-86
2023/03/23 03:24:37;;;;;;;2.27;1.17;;;12.60;99.90;;;;;;5078546;28;20173;-85
2023/03/23 03:27:06;;;;;;;1.20;1.10;;;12.60;99.90;;;;;;5077549;28;20165;-87
2023/03/23 03:29:36;;;;;;;1.63;1.10;;;12.50;99.90;;;;;;5076735;28;20175;-86
2023/03/23 03:32:06;;;;;;;1.50;1.00;;;12.50;99.90;;;;;;5077102;28;20188;-85
2023/03/23 03:34:33;;;;;;;1.07;1.00;;;12.50;99.90;;;;;;5079246;28;20160;-85
2023/03/23 03:36:59;;;;;;;1.70;1.20;;;12.40;99.90;;;;;;5076436;28;20173;-86
2023/03/23 03:39:27;;;;;;;1.57;1.00;;;12.50;99.90;;;;;;5076166;28;20208;-85
2023/03/23 03:41:54;;;;;;;1.20;1.03;;;12.40;99.90;;;;;;5076611;28;20212;-84
2023/03/23 03:44:20;;;;;;;3.27;1.30;;;12.30;99.90;;;;;;5076176;28;20179;-85
2023/03/23 03:46:45;;;;;;;1.57;1.10;;;12.30;99.90;;;;;;5077021;28;20169;-85
2023/03/23 03:49:12;;;;;;;1.20;1.10;;;12.30;99.90;;;;;;5076209;28;20174;-87
2023/03/23 03:51:40;;;;;;;2.07;1.10;;;12.30;99.90;;;;;;5075721;28;20192;-85
2023/03/23 03:54:05;;;;;;;1.33;0.90;;;12.20;99.90;;;;;;5076403;28;20176;-86
2023/03/23 03:56:34;;;;;;;1.97;1.00;;;12.20;99.90;;;;;;5079336;28;20178;-85
2023/03/23 03:59:00;;;;;;;1.00;0.90;;;12.10;99.90;;;;;;5078460;28;20188;-85
2023/03/23 04:01:26;;;;;;;1.30;1.20;;;12.10;99.90;;;;;;5075775;28;20190;-85
2023/03/23 04:03:51;;;;;;;1.43;1.17;;;12.00;99.90;;;;;;5076395;28;20186;-85
2023/03/23 04:06:18;;;;;;;1.40;1.20;;;11.90;99.90;;;;;;5075988;28;20662;-85
2023/03/23 04:08:44;;;;;;;1.33;1.17;;;11.80;99.90;;;;;;5076802;28;20262;-87
2023/03/23 04:11:12;;;;;;;2.23;1.20;;;11.90;99.90;;;;;;5078163;28;20698;-86
2023/03/23 04:13:38;;;;;;;1.30;1.20;;;11.80;99.90;;;;;;5077428;28;20267;-85
2023/03/23 04:16:04;;;;;;;1.10;1.00;;;11.70;99.90;;;;;;5077973;28;20184;-85
2023/03/23 04:18:32;;;;;;;1.23;1.00;;;11.50;99.90;;;;;;5077392;28;20211;-86
2023/03/23 04:20:59;;;;;;;1.87;1.20;;;11.40;99.90;;;;;;5077806;28;20189;-86
2023/03/23 04:23:26;;;;;;;1.47;1.00;;;11.30;99.90;;;;;;5078567;28;20216;-85
2023/03/23 04:25:56;;;;;;;1.33;1.23;;;11.20;99.90;;;;;;5076890;28;20165;-84
2023/03/23 04:28:23;;;;;;;1.33;1.00;;;11.20;99.90;;;;;;5076587;28;20662;-86
2023/03/23 04:30:52;;;;;;;1.30;1.20;;;11.10;99.90;;;;;;5075170;28;20173;-86
2023/03/23 04:33:19;;;;;;;1.53;1.10;;;11.10;99.90;;;;;;5076635;28;20182;-85
2023/03/23 04:35:47;;;;;;;1.47;1.17;;;11.10;99.90;;;;;;5076805;28;20173;-86
2023/03/23 04:38:15;;;;;;;1.73;1.10;;;11.10;99.90;;;;;;5075891;28;20180;-85
2023/03/23 04:40:42;;;;;;;1.50;1.40;;;11.10;99.90;;;;;;5076291;28;20637;-85
2023/03/23 04:43:08;;;;;;;1.77;1.30;;;11.00;99.90;;;;;;5074717;28;20207;-85
2023/03/23 04:45:37;;;;;;;2.70;1.30;;;10.90;99.90;;;;;;5074946;28;20175;-85
2023/03/23 04:48:04;;;;;;;2.23;1.40;;;10.90;99.90;;;;;;5074798;28;20195;-85
2023/03/23 04:50:32;;;;;;;1.80;1.30;;;10.90;99.90;;;;;;5073889;28;20177;-85
2023/03/23 04:53:03;;;;;;;1.50;1.40;;;10.90;99.90;;;;;;5073981;28;20199;-85
2023/03/23 04:55:30;;;;;;;1.70;1.30;;;10.80;99.90;;;;;;5075736;28;20195;-85
2023/03/23 04:57:59;;;;;;;1.23;1.07;;;10.70;99.90;;;;;;5075922;28;20173;-87
2023/03/23 05:00:25;;;;;;;1.60;1.30;;;10.70;99.90;;;;;;5073438;28;20180;-85
2023/03/23 05:02:51;;;;;;;2.13;1.40;;;10.70;99.90;;;;;;5076305;28;20685;-85
2023/03/23 05:05:18;;;;;;;1.70;1.30;;;10.70;99.90;;;;;;5074734;28;20181;-85
2023/03/23 05:07:44;;;;;;;1.60;1.40;;;10.60;99.90;;;;;;5075279;28;20177;-85
2023/03/23 05:10:11;;;;;;;3.10;1.50;;;10.60;99.90;;;;;;5073316;28;20189;-85
2023/03/23 05:12:37;;;;;;;1.30;1.20;;;10.50;99.90;;;;;;5074772;28;20605;-85
2023/03/23 05:15:03;;;;;;;1.40;1.30;;;10.50;99.90;;;;;;5072478;28;20663;-85
2023/03/23 05:17:30;;;;;;;1.73;1.30;;;10.50;99.90;;;;;;5074093;28;20173;-85
2023/03/23 05:19:56;;;;;;;1.50;1.40;;;10.50;99.90;;;;;;5071871;28;20208;-86
2023/03/23 05:22:23;;;;;;;2.73;1.40;;;10.50;99.90;;;;;;5074158;28;20547;-86
2023/03/23 05:24:51;;;;;;;2.37;1.37;;;10.50;99.90;;;;;;5073951;28;20176;-87
2023/03/23 05:27:18;;;;;;;2.17;1.47;;;10.40;99.90;;;;;;5073972;28;20165;-82
2023/03/23 05:29:45;;;;;;;2.37;1.50;;;10.40;99.90;;;;;;5070933;28;20187;-83
2023/03/23 05:32:11;;;;;;;1.50;1.40;;;10.40;99.90;;;;;;5071734;28;20193;-84
2023/03/23 05:34:37;;;;;;;1.83;1.50;;;10.50;99.90;;;;;;5073675;28;20177;-83
2023/03/23 05:37:03;;;;;;;2.93;1.40;;;10.50;99.90;;;;;;5072530;28;20235;-82
2023/03/23 05:39:31;;;;;;;1.90;1.60;;;10.50;99.90;;;;;;5070892;28;20193;-84
2023/03/23 05:41:56;;;;;;;1.93;1.50;;;10.40;99.90;;;;;;5069915;28;20258;-82
2023/03/23 05:44:22;;;;;;;2.67;1.60;;;10.40;99.90;;;;;;5071475;28;20173;-83
2023/03/23 05:46:48;;;;;;;2.20;1.63;;;10.40;99.90;;;;;;5071020;28;20169;-84
2023/03/23 05:49:15;;;;;;;2.40;1.80;;;10.40;99.90;;;;;;5071059;28;20169;-81
2023/03/23 05:51:42;;;;;;;2.63;1.50;;;10.30;99.90;;;;;;5071888;28;20280;-80
2023/03/23 05:54:08;;;;;;;2.60;1.77;;;10.30;99.90;;;;;;5075022;28;20180;-80
2023/03/23 05:56:34;;;;;;;2.40;1.70;;;10.30;99.90;;;;;;5074689;28;20666;-80
2023/03/23 05:59:00;;;;;;;2.87;1.80;;;10.20;99.90;;;;;;5075467;28;20200;-82
2023/03/23 06:01:27;;;;;;;2.40;1.80;;;10.20;99.90;;;;;;5073741;28;20220;-83
2023/03/23 06:03:53;;;;;;;2.00;1.80;;;10.20;99.90;;;;;;5074598;28;20634;-82
2023/03/23 06:06:20;;;;;;;3.03;1.60;;;10.30;99.90;;;;;;5074060;28;20180;-82
2023/03/23 06:08:46;;;;;;;2.40;1.90;;;10.30;99.90;;;;;;5076095;28;20326;-82
2023/03/23 06:11:13;;;;;;;2.77;1.90;;;10.30;99.90;;;;;;5074854;28;20775;-83
2023/03/23 06:13:38;;;;;;;2.30;1.40;;;10.30;99.90;;;;;;5075128;28;20173;-82
2023/03/23 06:16:04;;;;;;;3.27;1.60;;;10.30;99.90;;;;;;5074256;28;20187;-82
2023/03/23 06:18:33;;;;;;;2.30;1.63;;;10.20;99.90;;;;;;5075781;28;20201;-82
2023/03/23 06:20:59;;;;;;;2.10;1.67;;;10.20;99.90;;;;;;5074671;28;20189;-83
2023/03/23 06:23:25;;;;;;;1.60;1.50;;;10.20;99.90;;;;;;5074104;28;20262;-82
2023/03/23 06:25:54;;;;;;;2.20;1.70;;;10.30;99.90;;;;;;5074378;28;20223;-82
2023/03/23 06:28:20;;;;;;;2.00;1.80;;;10.30;99.90;;;;;;5075604;28;20176;-82
2023/03/23 06:30:45;;;;;;;2.57;1.80;;;10.30;99.90;;;;;;5074741;28;20177;-82
2023/03/23 06:33:11;;;;;;;2.60;1.63;;;10.30;99.90;;;;;;5075434;28;20173;-83
2023/03/23 06:35:37;;;;;;;2.63;2.03;;;10.40;99.90;;;;;;5074257;28;20213;-82
2023/03/23 06:38:02;;;;;;;3.13;1.50;;;10.40;99.90;;;;;;5074426;28;20168;-84
2023/03/23 06:40:28;;;;;;;2.87;1.70;;;10.40;99.90;;;;;;5073534;28;20185;-85
2023/03/23 06:42:57;;;;;;;1.63;1.50;;;10.50;99.90;;;;;;5073155;28;20233;-83
2023/03/23 06:45:22;;;;;;;1.87;1.70;;;10.50;99.90;;;;;;5074193;28;20176;-86
2023/03/23 06:47:48;;;;;;;2.60;1.80;;;10.50;99.90;;;;;;5074102;28;20169;-85
2023/03/23 06:50:17;;;;;;;1.53;1.40;;;10.50;99.90;;;;;;5073586;28;20176;-85
2023/03/23 06:52:47;;;;;;;1.60;1.50;;;10.60;99.90;;;;;;5073926;28;20263;-84
2023/03/23 06:55:13;;;;;;;2.33;1.83;;;10.60;99.90;;;;;;5073068;28;20196;-87
2023/03/23 06:57:40;;;;;;;3.57;2.00;;;10.60;99.90;;;;;;5074394;28;20184;-85
2023/03/23 07:00:08;;;;;;;2.33;1.90;;;10.70;99.90;;;;;;5072530;28;20201;-84
2023/03/23 07:02:34;;;;;;;2.43;1.80;;;10.70;99.90;;;;;;5073397;28;20262;-84
2023/03/23 07:05:00;;;;;;;4.20;1.80;;;10.60;99.90;;;;;;5072383;28;20210;-84
2023/03/23 07:07:26;;;;;;;1.70;1.60;;;10.70;99.90;;;;;;5072623;28;20169;-81
2023/03/23 07:09:51;;;;;;;2.23;1.73;;;10.70;99.90;;;;;;5075036;28;20203;-82
2023/03/23 07:12:17;;;;;;;2.30;1.70;;;10.60;99.90;;;;;;5073373;28;20196;-81
2023/03/23 07:14:42;;;;;;;2.43;1.73;;;10.70;99.90;;;;;;5074215;28;20188;-82
2023/03/23 07:17:09;;;;;;;5.07;1.87;;;10.70;99.90;;;;;;5075041;28;20173;-82
2023/03/23 07:19:35;;;;;;;3.20;1.80;;;10.70;99.90;;;;;;5073047;28;20203;-82
2023/03/23 07:22:01;;;;;;;3.97;1.70;;;10.70;99.90;;;;;;5071981;28;20197;-81
2023/03/23 07:24:27;;;;;;;2.10;1.80;;;10.70;99.90;;;;;;5072118;28;20231;-82
2023/03/23 07:26:53;;;;;;;2.83;1.80;;;10.80;99.90;;;;;;5073343;28;20169;-84
2023/03/23 07:29:18;;;;;;;2.83;1.77;;;10.80;99.90;;;;;;5075135;28;20203;-81
2023/03/23 07:31:44;;;;;;;2.30;1.87;;;10.80;99.90;;;;;;5072899;28;20663;-81
2023/03/23 07:34:10;;;;;;;2.17;1.90;;;10.80;99.90;;;;;;5073520;28;20172;-81
2023/03/23 07:36:37;;;;;;;2.10;1.70;;;10.90;99.90;;;;;;5074960;28;20173;-81
2023/03/23 07:39:05;;;;;;;3.67;2.17;;;10.90;99.90;;;;;;5074788;28;20197;-84
2023/03/23 07:41:31;;;;;;;3.07;1.80;;;10.90;99.90;;;;;;5073893;28;20215;-82
2023/03/23 07:43:57;;;;;;;1.93;1.73;;;11.00;99.90;;;;;;5073330;28;20166;-81
2023/03/23 07:46:23;;;;;;;2.50;1.90;;;11.00;99.90;;;;;;5073382;28;20192;-82
2023/03/23 07:48:48;;;;;;;3.10;1.87;;;11.10;99.90;;;;;;5073245;28;20177;-82
2023/03/23 07:51:16;;;;;;;2.00;1.80;;;11.10;99.90;;;;;;5072672;28;20224;-82
2023/03/23 07:53:44;;;;;;;3.87;1.87;;;11.20;99.90;;;;;;5074325;28;20176;-82
2023/03/23 07:56:11;;;;;;;2.53;1.83;;;11.20;99.90;;;;;;5066678;28;20178;-82
2023/03/23 07:58:37;;;;;;;3.00;1.90;;;11.10;99.90;;;;;;5065839;28;20189;-81
2023/03/23 08:01:03;;;;;;;2.67;2.00;;;11.10;99.90;;;;;;5068921;28;20201;-82
2023/03/23 08:03:28;;;;;;;2.43;1.80;;;11.10;99.90;;;;;;5073274;28;20223;-82
2023/03/23 08:05:58;;;;;;;1.97;1.70;;;11.00;99.90;;;;;;5073493;28;20169;-82
2023/03/23 08:08:24;;;;;;;2.17;1.70;;;11.00;99.90;;;;;;5074461;28;20226;-82
2023/03/23 08:10:50;;;;;;;2.07;1.87;;;11.00;99.90;;;;;;5074462;28;20169;-82
2023/03/23 08:13:16;;;;;;;2.30;2.10;;;11.00;99.90;;;;;;5074119;28;20256;-82
2023/03/23 08:15:43;;;;;;;2.17;1.77;;;10.90;99.90;;;;;;5071955;28;20180;-81
2023/03/23 08:18:09;;;;;;;3.00;2.00;;;10.90;99.90;;;;;;5071734;28;20173;-82
2023/03/23 08:20:35;;;;;;;3.87;2.10;;;10.90;99.90;;;;;;5073106;28;20169;-82
2023/03/23 08:23:02;;;;;;;2.10;1.90;;;10.80;99.90;;;;;;5072725;28;20196;-86
2023/03/23 08:25:31;;;;;;;2.03;1.73;;;10.80;99.90;;;;;;5073457;28;20172;-83
2023/03/23 08:27:57;;;;;;;2.97;2.10;;;10.80;99.90;;;;;;5072737;28;20169;-82
2023/03/23 08:30:25;;;;;;;2.93;2.00;;;10.90;99.90;;;;;;5071469;28;20173;-82
2023/03/23 08:32:51;;;;;;;2.40;2.00;;;10.90;99.90;;;;;;5071756;28;20197;-84
2023/03/23 08:35:19;;;;;;;2.63;2.00;;;11.00;99.90;;;;;;5071699;28;20173;-82
2023/03/23 08:37:45;;;;;;;2.63;1.87;;;11.00;99.90;;;;;;5072422;28;20177;-82
2023/03/23 08:40:13;;;;;;;2.50;1.77;;;11.10;99.90;;;;;;5073038;28;20243;-82
2023/03/23 08:42:42;;;;;;;1.80;1.60;;;11.10;99.90;;;;;;5116799;22;20650;-87
2023/03/23 08:45:10;;;;;;;2.20;1.90;;;11.10;99.90;;;;;;5053469;28;20212;-87
2023/03/23 08:47:37;;;;;;;2.10;1.90;;;11.20;99.90;;;;;;5024042;28;20185;-85
2023/03/23 08:50:05;;;;;;;2.77;1.87;;;11.20;99.90;;;;;;5038969;28;20187;-86
2023/03/23 08:52:30;;;;;;;2.97;1.70;;;11.20;99.90;;;;;;5032638;28;20229;-86
2023/03/23 08:54:56;;;;;;;2.13;1.87;;;11.20;99.90;;;;;;5032699;28;20700;-87
2023/03/23 08:57:23;;;;;;;2.13;1.87;;;11.20;99.90;;;;;;5050728;28;20185;-86
2023/03/23 08:59:48;;;;;;;3.53;1.80;;;11.20;99.90;;;;;;5051198;28;20197;-86
2023/03/23 09:02:14;;;;;;;2.30;1.80;;;11.30;99.90;;;;;;5033482;28;20201;-87
2023/03/23 09:04:42;;;;;;;2.27;1.77;;;11.30;99.90;;;;;;5034645;28;20192;-86
2023/03/23 09:07:10;;;;;;;2.63;1.90;;;11.30;99.90;;;;;;5053294;28;20249;-86
2023/03/23 09:09:37;;;;;;;3.20;2.20;;;11.30;99.90;;;;;;5034927;28;20188;-83
2023/03/23 09:12:03;;;;;;;2.50;2.13;;;11.30;99.90;;;;;;5053350;28;20202;-86
2023/03/23 09:14:28;;;;;;;2.63;1.90;;;11.30;99.90;;;;;;5035575;28;20177;-86
2023/03/23 09:16:54;;;;;;;2.30;1.90;;;11.30;99.90;;;;;;5035708;28;20184;-86
2023/03/23 09:19:20;;;;;;;3.33;1.90;;;11.30;99.90;;;;;;5054825;28;20223;-86
2023/03/23 09:21:46;;;;;;;1.90;1.70;;;11.30;99.90;;;;;;5035118;28;20186;-86
2023/03/23 09:24:13;;;;;;;2.90;2.10;;;11.40;99.90;;;;;;5035968;28;20166;-84
2023/03/23 09:26:38;;;;;;;1.90;1.80;;;11.40;99.90;;;;;;5036303;28;20170;-86
2023/03/23 09:29:04;;;;;;;2.57;2.17;;;11.40;99.90;;;;;;5040440;28;20177;-86
2023/03/23 09:31:31;;;;;;;2.17;1.97;;;11.50;99.90;;;;;;5057019;28;20277;-86
2023/03/23 09:33:58;;;;;;;2.30;1.90;;;11.50;99.90;;;;;;5058484;28;20203;-86
2023/03/23 09:36:30;;;;;;;2.83;2.10;;;11.50;99.90;;;;;;5058342;28;20185;-86
2023/03/23 09:38:57;;;;;;;2.30;2.10;;;11.50;99.90;;;;;;5039637;28;20316;-87
2023/03/23 09:41:48;;;;;;;2.30;2.10;;;11.50;99.90;;;;;;5056529;28;20193;-84
2023/03/23 09:44:36;;;;;;;2.90;1.93;;;11.40;99.90;;;;;;5057619;28;20198;-86
2023/03/23 09:47:19;;;;;;;3.00;1.90;;;11.40;99.90;;;;;;5039629;28;20189;-87
2023/03/23 09:50:18;;;;;;;2.30;1.90;;;11.40;99.90;;;;;;5057568;28;20664;-86
2023/03/23 09:52:56;;;;;;;2.90;1.93;;;11.40;99.90;;;;;;5039654;28;20212;-86
2023/03/23 09:55:22;;;;;;;2.27;2.00;;;11.40;99.90;;;;;;5058469;28;20234;-86
2023/03/23 09:58:16;;;;;;;2.13;1.87;;;11.40;99.90;;;;;;5056802;28;20231;-86
2023/03/23 10:00:55;;;;;;;2.67;2.10;;;11.40;99.90;;;;;;5040432;28;20227;-86
2023/03/23 10:03:33;;;;;;;3.70;2.17;;;11.40;99.90;;;;;;5039727;28;20185;-85
2023/03/23 10:05:59;;;;;;;2.40;2.20;;;11.40;99.90;;;;;;5040152;28;20264;-87
2023/03/23 10:08:27;;;;;;;2.43;2.13;;;11.50;99.90;;;;;;5040528;28;20209;-85
2023/03/23 10:11:20;;;;;;;2.23;2.03;;;11.60;99.90;;;;;;5039822;28;20189;-88
2023/03/23 10:14:14;;;;;;;2.63;2.07;;;11.60;99.90;;;;;;5040132;28;20253;-85
2023/03/23 10:17:00;;;;;;;2.30;2.00;;;11.70;99.90;;;;;;5040445;28;20177;-85
2023/03/23 10:20:14;;;;;;;2.77;2.10;;;11.90;99.90;;;;;;5041267;28;20306;-85
2023/03/23 10:23:09;;;;;;;2.30;2.10;;;11.90;99.90;;;;;;4939469;29;20204;-85
2023/03/23 10:25:41;;;;;;;2.30;1.90;;;12.00;99.90;;;;;;4995843;28;20265;-86
2023/03/23 10:28:11;;;;;;;2.10;1.90;;;12.00;99.90;;;;;;5042054;28;20170;-86
2023/03/23 10:30:43;;;;;;;3.23;2.07;;;12.00;99.90;;;;;;5058879;28;20176;-86
2023/03/23 10:33:16;;;;;;;3.23;2.30;;;12.00;99.90;;;;;;5041468;28;20194;-86
2023/03/23 10:35:45;;;;;;;2.57;2.27;;;12.10;99.90;;;;;;5060797;28;20166;-85
2023/03/23 10:38:17;;;;;;;3.30;2.60;;;12.10;99.90;;;;;;5059697;28;20174;-86
2023/03/23 10:40:58;;;;;;;2.73;2.53;;;12.20;99.90;;;;;;5060130;28;20182;-86
2023/03/23 10:43:24;;;;;;;3.50;2.60;;;12.20;99.90;;;;;;5042134;28;20213;-87
2023/03/23 10:46:24;;;;;;;2.80;2.33;;;12.20;99.90;;;;;;5042226;28;20196;-87
2023/03/23 10:48:52;;;;;;;2.40;1.93;;;12.20;99.90;;;;;;5043638;28;20241;-86
2023/03/23 10:51:22;;;;;;;2.50;2.00;;;12.10;99.90;;;;;;5042063;28;20178;-86
2023/03/23 10:53:56;;;;;;;3.73;2.10;;;12.10;99.90;;;;;;5042055;28;20177;-86
2023/03/23 10:56:27;;;;;;;2.20;2.00;;;11.90;99.90;;;;;;5041574;28;20660;-86
2023/03/23 10:58:54;;;;;;;2.00;1.80;;;11.90;99.90;;;;;;5057746;28;20197;-86
2023/03/23 11:01:29;;;;;;;2.30;2.10;;;11.90;99.90;;;;;;5059340;28;20197;-86
2023/03/23 11:03:55;;;;;;;2.43;2.10;;;11.90;99.90;;;;;;5060161;28;20161;-86
2023/03/23 11:06:20;;;;;;;2.40;2.17;;;11.80;99.90;;;;;;5037031;28;20181;-87
2023/03/23 11:08:52;;;;;;;2.30;2.10;;;11.90;99.90;;;;;;5024388;28;20181;-87
2023/03/23 11:11:42;;;;;;;2.77;1.93;;;11.80;99.90;;;;;;5044918;28;20177;-87
2023/03/23 11:14:24;;;;;;;3.10;2.30;;;11.90;99.90;;;;;;5014908;28;20182;-88
2023/03/23 11:16:55;;;;;;;2.80;2.10;;;12.10;99.90;;;;;;5036008;28;20174;-88
2023/03/23 11:19:40;;;;;;;2.17;1.97;;;12.10;99.90;;;;;;5053344;28;20664;-85
2023/03/23 11:22:13;;;;;;;3.70;2.03;;;12.20;99.90;;;;;;5019170;28;20289;-87
2023/03/23 11:24:44;;;;;;;2.70;2.00;;;12.20;99.90;;;;;;5038727;28;20171;-89
2023/03/23 11:27:10;;;;;;;2.40;2.20;;;12.20;99.90;;;;;;5019755;28;20258;-89
2023/03/23 11:29:53;;;;;;;2.50;2.30;;;12.20;99.90;;;;;;5016834;28;20196;-84
2023/03/23 11:32:23;;;;;;;2.53;2.20;;;12.30;99.90;;;;;;5018471;28;20245;-84
2023/03/23 11:34:55;;;;;;;2.53;2.13;;;12.40;99.90;;;;;;5018146;28;20162;-85
2023/03/23 11:37:29;;;;;;;3.60;2.10;;;12.40;99.90;;;;;;5016993;28;20207;-83
2023/03/23 11:40:14;;;;;;;3.07;2.40;;;12.40;99.90;;;;;;5033104;28;20236;-83
2023/03/23 11:42:43;;;;;;;2.37;2.17;;;12.40;99.90;;;;;;5033359;28;20244;-84
2023/03/23 11:45:35;;;;;;;2.57;2.13;;;12.40;99.90;;;;;;5016118;28;20169;-82
2023/03/23 11:48:11;;;;;;;2.50;2.07;;;12.20;99.90;;;;;;5015711;28;20170;-87
2023/03/23 11:51:00;;;;;;;2.30;2.10;;;12.10;99.90;;;;;;5014872;28;20174;-85
2023/03/23 11:53:37;;;;;;;2.97;2.00;;;12.10;99.90;;;;;;4986862;28;20248;-86
2023/03/23 11:56:29;;;;;;;2.20;1.80;;;12.20;99.90;;;;;;5033151;28;20281;-85
2023/03/23 11:58:57;;;;;;;1.93;1.73;;;12.40;99.90;;;;;;5016313;28;20206;-78
2023/03/23 12:01:46;;;;;;;2.37;1.47;;;12.50;99.90;;;;;;5039645;28;20217;-83
2023/03/23 12:04:27;;;;;;;2.03;1.70;;;12.60;99.90;;;;;;5037120;28;20215;-85
2023/03/23 12:07:05;;;;;;;2.33;1.90;;;12.50;99.90;;;;;;5016975;28;20554;-85
2023/03/23 12:09:42;;;;;;;2.30;1.80;;;12.70;99.90;;;;;;5034132;28;20265;-85
2023/03/23 12:12:15;;;;;;;1.70;1.60;;;12.70;99.90;;;;;;5033495;28;20202;-87
2023/03/23 12:14:51;;;;;;;2.30;2.03;;;12.70;99.90;;;;;;5015589;28;20185;-87
2023/03/23 12:17:20;;;;;;;2.67;2.00;;;12.80;99.90;;;;;;5033141;28;20188;-87
2023/03/23 12:19:54;;;;;;;1.80;1.50;;;12.90;99.90;;;;;;5015149;28;20194;-87
2023/03/23 12:22:42;;;;;;;1.40;1.27;;;12.90;99.90;;;;;;5015198;28;20571;-87
2023/03/23 12:25:29;;;;;;;2.03;1.50;;;12.80;99.90;;;;;;5015352;28;20208;-87
2023/03/23 12:28:15;;;;;;;1.63;1.50;;;12.70;99.90;;;;;;5015329;28;20165;-87
2023/03/23 12:30:53;;;;;;;1.40;1.30;;;12.60;99.90;;;;;;5033064;28;20261;-87
2023/03/23 12:33:22;;;;;;;1.87;1.47;;;12.60;99.90;;;;;;5015277;28;20705;-87
2023/03/23 12:36:25;;;;;;;1.40;1.30;;;12.60;99.90;;;;;;5032996;28;20225;-87
2023/03/23 12:39:29;;;;;;;1.90;1.40;;;12.50;99.90;;;;;;5015040;28;20707;-87
2023/03/23 12:42:07;;;;;;;2.30;1.57;;;12.50;99.90;;;;;;5013984;28;20210;-87
2023/03/23 12:44:46;;;;;;;2.60;1.60;;;12.30;99.90;;;;;;5032307;28;20232;-88
2023/03/23 12:47:24;;;;;;;1.93;1.73;;;12.30;99.90;;;;;;5014450;28;20521;-88
2023/03/23 12:50:03;;;;;;;1.60;1.50;;;12.30;99.90;;;;;;5031814;28;20174;-88
2023/03/23 12:52:33;;;;;;;1.80;1.50;;;12.30;99.90;;;;;;5014122;28;20194;-88
2023/03/23 12:55:22;;;;;;;2.13;1.37;;;12.20;99.90;;;;;;5031953;28;20257;-88
2023/03/23 12:58:09;;;;;;;1.90;1.50;;;12.30;99.90;;;;;;5024130;28;20205;-88
2023/03/23 13:00:49;;;;;;;1.80;1.50;;;12.30;99.90;;;;;;5021202;28;20234;-88
2023/03/23 13:03:29;;;;;;;1.80;1.70;;;12.30;99.90;;;;;;5028351;28;20189;-88
2023/03/23 13:06:11;;;;;;;2.03;1.20;;;12.30;99.90;;;;;;5047398;28;20169;-88